METAR Data
IDs: Format: Raw Decoded Include TAF

Data at: 0132 UTC 12 May 2021

KGYY 120045Z 01006KT 10SM CLR 07/M01 A3038
KGYY 112345Z 02012KT 10SM CLR 08/00 A3039
KGYY 112245Z 01012KT 10SM CLR 08/00 A3037
KGYY 112145Z 02012KT 10SM CLR 09/00 A3037
KGYY 112045Z 02014KT 10SM CLR 10/01 A3036
KGYY 111945Z 04014KT 10SM CLR 09/02 A3037
KGYY 111845Z 04011KT 10SM CLR 10/03 A3037
KGYY 111745Z 04008KT 10SM CLR 10/00 A3038
KGYY 111645Z 03008KT 10SM CLR 10/00 A3039
KGYY 111545Z 03008KT 10SM CLR 09/01 A3038
KGYY 111445Z 04009KT 10SM CLR 09/02 A3037
KGYY 111345Z 03007KT 15SM CLR 08/02 A3036
KGYY 111245Z COR 05007KT 15SM CLR 08/02 A3035
KGYY 111145Z 05005KT 15SM CLR 06/01 A3032
KGYY 111045Z 03004KT 15SM CLR 05/01 A3031
KGYY 110945Z 03007KT 10SM CLR 05/01 A3028
KGYY 110915Z AUTO 01005KT 10SM CLR 06/01 A3027 RMK AO2 T00550006
KGYY 110855Z AUTO 02004KT 10SM CLR 05/01 A3027 RMK AO2 T00530008
KGYY 110835Z AUTO 02006KT 10SM SCT120 06/01 A3026 RMK AO2 T00590006
KGYY 110815Z AUTO 02005KT 10SM SCT120 06/00 A3026 RMK AO2 T00600003
KGYY 110755Z AUTO 02007KT 10SM SCT095 BKN120 07/00 A3025 RMK AO2 T00650002
KGYY 110735Z AUTO 02006KT 10SM SCT080 BKN095 OVC120 07/00 A3025 RMK AO2 T00670003
KGYY 110715Z AUTO 02007KT 10SM BKN095 OVC120 07/01 A3025 RMK AO2 T00660005
KGYY 110655Z AUTO 03006KT 10SM BKN095 OVC120 07/00 A3025 RMK AO2 T00670002
KGYY 110635Z AUTO 03007KT 10SM BKN095 BKN120 07/00 A3025 RMK AO2 T00660002
KGYY 110615Z AUTO 02006KT 10SM SCT095 SCT120 07/00 A3024 RMK AO2 T00670000
KGYY 110555Z AUTO 02006KT 10SM SCT120 07/00 A3024 RMK AO2 T00660000 10071 20064 401000023
KGYY 110535Z AUTO 02006KT 10SM CLR 07/00 A3023 RMK AO2 T00651002
KGYY 110515Z AUTO 02004KT 10SM SCT100 07/M01 A3024 RMK AO2 T00661008
KGYY 110455Z AUTO 03005KT 10SM SCT100 SCT120 07/00 A3024 RMK AO2 T00661001
KGYY 110435Z AUTO 00000KT 10SM SCT110 07/00 A3023 RMK AO2 T00670003
KGYY 110415Z AUTO 05004KT 10SM SCT090 SCT100 SCT120 07/00 A3024 RMK AO2 T00680003
KGYY 110355Z AUTO 05004KT 10SM BKN090 BKN110 07/00 A3024 RMK AO2 T00700003
KGYY 110335Z AUTO 04005KT 10SM BKN090 OVC110 07/01 A3023 RMK AO2 T00710007
KGYY 110315Z AUTO 04007KT 10SM BKN110 07/00 A3023 RMK AO2 T00700001
KGYY 110245Z 04005KT 10SM OVC100 07/01 A3023
KGYY 110145Z 04005KT 10SM OVC085 07/01 A3021
KGYY 110045Z 04009KT 10SM OVC075 07/00 A3019
KGYY 102345Z 03010KT 10SM BKN120 07/00 A3019
KGYY 102245Z 03012KT 10SM CLR 07/03 A3018
KGYY 102145Z 02011KT 10SM CLR 07/03 A3018
KGYY 102045Z 03012KT 10SM CLR 09/04 A3018
KGYY 101945Z 03011KT 10SM SCT090 09/02 A3018
KGYY 101845Z 05009G23KT 15SM CLR 09/03 A3017
KGYY 101745Z 06015KT 15SM CLR 09/02 A3016
KGYY 101645Z 04014KT 12SM SCT025 BKN043 BKN050 08/04 A3017
KGYY 101545Z 00000KT 10SM BKN060 OVC085 09/04 A3015
KGYY 101445Z 07005KT 10SM SCT075 OVC095 09/05 A3014
KGYY 101345Z 06004KT 10SM BKN080 OVC095 08/04 A3014